createdAt,value
2022-08-25T00:02:40.575Z,19.52
2022-08-25T00:12:50.848Z,19.52
2022-08-25T00:22:58.729Z,19.60
2022-08-25T00:33:06.062Z,19.57
2022-08-25T00:43:13.940Z,19.44
2022-08-25T00:53:21.250Z,19.34
2022-08-25T01:03:35.576Z,19.25
2022-08-25T01:13:44.744Z,19.26
2022-08-25T01:23:52.962Z,19.32
2022-08-25T01:33:58.580Z,19.37
2022-08-25T01:44:07.165Z,19.30
2022-08-25T01:54:24.031Z,19.38
2022-08-25T02:04:31.059Z,19.26
2022-08-25T02:14:39.620Z,19.19
2022-08-25T02:24:49.761Z,19.17
2022-08-25T02:34:57.934Z,19.02
2022-08-25T02:45:06.834Z,18.98
2022-08-25T02:55:17.119Z,18.97
2022-08-25T03:05:23.130Z,18.91
2022-08-25T03:15:30.837Z,18.86
2022-08-25T03:25:57.733Z,18.85
2022-08-25T03:36:10.334Z,18.81
2022-08-25T03:46:23.835Z,18.78
2022-08-25T03:56:31.789Z,18.77
2022-08-25T04:06:39.299Z,18.78
2022-08-25T04:16:47.177Z,18.91
2022-08-25T04:26:55.216Z,19.15
2022-08-25T04:37:00.870Z,19.34
2022-08-25T04:47:06.332Z,19.60
2022-08-25T04:57:14.319Z,19.98
2022-08-25T05:07:21.482Z,20.23
2022-08-25T05:17:29.183Z,20.69
2022-08-25T05:27:36.680Z,21.52
2022-08-25T05:37:44.037Z,22.15
2022-08-25T05:47:50.605Z,22.56
2022-08-25T05:57:59.454Z,22.31
2022-08-25T06:08:04.610Z,21.92
2022-08-25T06:18:11.993Z,21.84
2022-08-25T06:28:18.468Z,22.06
2022-08-25T06:38:26.904Z,22.65
2022-08-25T06:48:34.576Z,23.22
2022-08-25T06:58:40.838Z,23.32
2022-08-25T07:08:48.613Z,23.42
2022-08-25T07:18:55.685Z,23.60
2022-08-25T07:29:03.243Z,24.09
2022-08-25T07:39:10.321Z,24.61
2022-08-25T07:49:17.731Z,24.59
2022-08-25T07:59:29.682Z,23.96
2022-08-25T08:09:37.740Z,23.90
2022-08-25T08:19:45.359Z,23.72
2022-08-25T08:29:52.667Z,23.71
2022-08-25T08:40:03.444Z,24.40
2022-08-25T08:50:23.939Z,24.80
2022-08-25T09:00:52.077Z,25.18
2022-08-25T09:10:59.863Z,25.10
2022-08-25T09:21:07.166Z,25.25
2022-08-25T09:31:13.617Z,25.74
2022-08-25T09:41:36.580Z,26.12
2022-08-25T09:51:45.104Z,26.52
2022-08-25T10:01:52.331Z,26.53
2022-08-25T10:12:02.086Z,26.48
2022-08-25T10:22:11.190Z,26.86
2022-08-25T10:32:16.037Z,27.22
2022-08-25T10:42:35.094Z,27.42
2022-08-25T10:52:51.470Z,27.39
2022-08-25T11:03:06.639Z,27.69
2022-08-25T11:13:12.792Z,27.67
2022-08-25T11:23:25.354Z,27.62
2022-08-25T11:33:33.822Z,27.72
2022-08-25T11:43:54.157Z,27.88
2022-08-25T11:54:08.786Z,28.07
2022-08-25T12:04:14.938Z,28.13
2022-08-25T12:14:38.275Z,28.16
2022-08-25T12:24:56.694Z,28.37
2022-08-25T12:35:16.191Z,28.54
2022-08-25T12:45:42.036Z,28.52
2022-08-25T12:55:47.937Z,28.49
2022-08-25T13:06:16.918Z,28.50
2022-08-25T13:16:29.382Z,28.55
2022-08-25T13:26:48.343Z,28.46
2022-08-25T13:37:16.360Z,28.48
2022-08-25T13:47:45.360Z,28.47
2022-08-25T13:57:54.816Z,28.50
2022-08-25T14:08:16.348Z,28.53
2022-08-25T14:18:33.413Z,28.58
2022-08-25T14:28:41.126Z,28.67
2022-08-25T14:38:54.855Z,28.68
2022-08-25T14:49:05.117Z,28.59
2022-08-25T14:59:12.547Z,28.54
2022-08-25T15:09:21.324Z,28.50
2022-08-25T15:19:30.444Z,28.48
2022-08-25T15:29:38.471Z,28.43
2022-08-25T15:39:47.439Z,28.36
2022-08-25T15:50:06.789Z,28.30
2022-08-25T16:00:16.937Z,28.20
2022-08-25T16:10:25.085Z,28.11
2022-08-25T16:20:34.744Z,28.01
2022-08-25T16:30:45.686Z,27.83
2022-08-25T16:41:00.803Z,27.62
2022-08-25T16:51:10.150Z,27.38
2022-08-25T17:01:17.664Z,26.97
2022-08-25T17:11:28.213Z,26.58
2022-08-25T17:21:38.701Z,26.20
2022-08-25T17:31:52.855Z,25.75
2022-08-25T17:42:00.123Z,25.22
2022-08-25T17:52:09.380Z,24.66
2022-08-25T18:02:16.874Z,24.07
2022-08-25T18:12:27.394Z,23.67
2022-08-25T18:22:37.148Z,23.32
2022-08-25T18:32:44.283Z,22.97
2022-08-25T18:42:51.925Z,22.71
2022-08-25T18:53:00.740Z,22.47
2022-08-25T19:03:07.028Z,22.21
2022-08-25T19:13:16.961Z,21.85
2022-08-25T19:23:30.122Z,21.60
2022-08-25T19:33:44.613Z,21.48
2022-08-25T19:43:56.296Z,21.37
2022-08-25T19:54:05.995Z,21.13
2022-08-25T20:04:14.280Z,20.94
2022-08-25T20:14:22.286Z,21.01
2022-08-25T20:24:45.800Z,20.77
2022-08-25T20:34:53.911Z,20.59
2022-08-25T20:45:04.300Z,20.55
2022-08-25T20:55:09.028Z,20.37
2022-08-25T21:05:16.489Z,20.24
2022-08-25T21:15:24.319Z,20.32
2022-08-25T21:25:31.407Z,20.32
2022-08-25T21:35:40.339Z,20.19
2022-08-25T21:45:47.735Z,20.08
2022-08-25T21:55:55.009Z,20.02
2022-08-25T22:06:02.701Z,19.86
2022-08-25T22:16:12.028Z,19.64
2022-08-25T22:26:22.091Z,19.49
2022-08-25T22:36:32.418Z,19.49
2022-08-25T22:46:39.840Z,19.31
2022-08-25T22:56:46.648Z,19.14
2022-08-25T23:06:54.044Z,18.99
2022-08-25T23:17:01.774Z,18.96
2022-08-25T23:27:17.944Z,18.79
2022-08-25T23:37:25.410Z,18.66
2022-08-25T23:47:33.744Z,18.61
2022-08-25T23:57:41.278Z,18.54
